createdAt,value
2023-05-10T00:00:46.433Z,50.877304
2023-05-10T00:01:46.402Z,50.877274
2023-05-10T00:02:46.594Z,50.877300
2023-05-10T00:03:46.467Z,50.877285
2023-05-10T00:04:46.374Z,50.877277
2023-05-10T00:05:46.392Z,50.877281
2023-05-10T00:06:46.370Z,50.877296
2023-05-10T00:07:46.349Z,50.877300
2023-05-10T00:08:46.347Z,50.877296
2023-05-10T00:09:46.309Z,50.877277
2023-05-10T00:10:46.349Z,50.877285
2023-05-10T00:11:46.309Z,50.877266
2023-05-10T00:12:47.328Z,50.877270
2023-05-10T00:13:46.283Z,50.877251
2023-05-10T00:14:46.282Z,50.877258
2023-05-10T00:15:46.300Z,50.877251
2023-05-10T00:16:46.352Z,50.877270
2023-05-10T00:17:46.286Z,50.877251
2023-05-10T00:18:46.242Z,50.877232
2023-05-10T00:19:46.226Z,50.877254
2023-05-10T00:20:46.235Z,50.877239
2023-05-10T00:21:46.248Z,50.877262
2023-05-10T00:22:46.199Z,50.877228
2023-05-10T00:23:46.234Z,50.877232
2023-05-10T00:24:46.189Z,50.877144
2023-05-10T00:25:46.193Z,50.877205
2023-05-10T00:26:46.164Z,50.877243
2023-05-10T00:27:46.166Z,50.877235
2023-05-10T00:28:46.136Z,50.877247
2023-05-10T00:29:46.156Z,50.877262
2023-05-10T00:30:46.122Z,50.877239
2023-05-10T00:31:46.172Z,50.877205
2023-05-10T00:32:46.200Z,50.877220
2023-05-10T00:33:46.085Z,50.877197
2023-05-10T00:34:46.128Z,50.877209
2023-05-10T00:35:46.083Z,50.877216
2023-05-10T00:36:46.074Z,50.877235
2023-05-10T00:37:46.052Z,50.877197
2023-05-10T00:38:46.037Z,50.877205
2023-05-10T00:39:46.050Z,50.877213
2023-05-10T00:40:46.018Z,50.877220
2023-05-10T00:41:46.066Z,50.877338
2023-05-10T00:42:46.038Z,50.877235
2023-05-10T00:43:45.981Z,50.877232
2023-05-10T00:44:45.976Z,50.877224
2023-05-10T00:45:46.063Z,50.877220
2023-05-10T00:46:45.967Z,50.877239
2023-05-10T00:47:45.983Z,50.877224
2023-05-10T00:48:45.932Z,50.877216
2023-05-10T00:49:45.952Z,50.877193
2023-05-10T00:50:45.930Z,50.877197
2023-05-10T00:51:45.905Z,50.877197
2023-05-10T00:52:45.915Z,50.877186
2023-05-10T00:53:45.907Z,50.877186
2023-05-10T00:54:46.885Z,50.877193
2023-05-10T00:55:45.883Z,50.877213
2023-05-10T00:56:45.874Z,50.877197
2023-05-10T00:57:45.854Z,50.877216
2023-05-10T00:58:45.907Z,50.877209
2023-05-10T00:59:45.826Z,50.877216
2023-05-10T01:00:45.815Z,50.877228
2023-05-10T01:01:45.868Z,50.877209
2023-05-10T01:02:45.937Z,50.877186
2023-05-10T01:03:45.808Z,50.877239
2023-05-10T01:04:45.815Z,50.877247
2023-05-10T01:05:45.784Z,50.877239
2023-05-10T01:06:45.756Z,50.877243
2023-05-10T01:07:45.740Z,50.877254
2023-05-10T01:15:22.810Z,50.877220
2023-05-10T01:16:22.839Z,50.877296
2023-05-10T01:17:22.820Z,50.877213
2023-05-10T01:18:22.792Z,50.877155
2023-05-10T01:19:22.753Z,50.877190
2023-05-10T01:20:22.744Z,50.877254
2023-05-10T01:21:22.731Z,50.877247
2023-05-10T01:22:22.743Z,50.877235
2023-05-10T01:23:22.729Z,50.877228
2023-05-10T01:24:22.695Z,50.877213
2023-05-10T01:25:22.705Z,50.877216
2023-05-10T01:26:22.695Z,50.877201
2023-05-10T01:27:22.676Z,50.877224
2023-05-10T01:28:22.669Z,50.877209
2023-05-10T01:29:22.677Z,50.877209
2023-05-10T01:30:22.746Z,50.877220
2023-05-10T01:31:22.712Z,50.877186
2023-05-10T01:32:22.684Z,50.877186
2023-05-10T01:33:22.655Z,50.877205
2023-05-10T01:34:22.617Z,50.877209
2023-05-10T01:35:22.593Z,50.877201
2023-05-10T01:36:22.594Z,50.877213
2023-05-10T01:37:22.631Z,50.877216
2023-05-10T01:38:22.565Z,50.877171
2023-05-10T01:39:22.576Z,50.877113
2023-05-10T01:40:22.569Z,50.877174
2023-05-10T01:41:22.620Z,50.877171
2023-05-10T01:42:22.536Z,50.877148
2023-05-10T01:43:22.534Z,50.877132
2023-05-10T01:44:22.549Z,50.877121
2023-05-10T01:45:22.548Z,50.877075
2023-05-10T01:46:22.497Z,50.876991
2023-05-10T01:47:22.484Z,50.877018
2023-05-10T01:48:22.468Z,50.877110
2023-05-10T01:49:22.480Z,50.877182
2023-05-10T01:50:22.456Z,50.877182
2023-05-10T01:51:22.437Z,50.877182
2023-05-10T01:52:22.474Z,50.877178
2023-05-10T01:53:22.446Z,50.877174
2023-05-10T01:54:22.433Z,50.877174
2023-05-10T01:55:22.415Z,50.877193
2023-05-10T01:56:22.446Z,50.877190
2023-05-10T01:57:22.394Z,50.877201
2023-05-10T01:58:22.371Z,50.877190
2023-05-10T01:59:22.374Z,50.877171
2023-05-10T02:00:22.338Z,50.877159
2023-05-10T02:01:22.640Z,50.877182
2023-05-10T02:02:22.333Z,50.877190
2023-05-10T02:03:22.368Z,50.877193
2023-05-10T02:04:22.313Z,50.877205
2023-05-10T02:05:22.317Z,50.877235
2023-05-10T02:06:22.286Z,50.877216
2023-05-10T02:07:22.282Z,50.877197
2023-05-10T02:08:22.284Z,50.877193
2023-05-10T02:09:22.269Z,50.877193
2023-05-10T02:10:22.235Z,50.877144
2023-05-10T02:11:22.309Z,50.877171
2023-05-10T02:12:22.220Z,50.877205
2023-05-10T02:13:22.256Z,50.877186
2023-05-10T02:14:22.200Z,50.877186
2023-05-10T02:15:22.191Z,50.877216
2023-05-10T02:16:22.305Z,50.877224
2023-05-10T02:17:22.166Z,50.877213
2023-05-10T02:18:22.157Z,50.877205
2023-05-10T02:19:22.149Z,50.877171
2023-05-10T02:20:22.135Z,50.877190
2023-05-10T02:21:22.146Z,50.877190
2023-05-10T02:22:22.169Z,50.877197
2023-05-10T02:23:22.125Z,50.877190
2023-05-10T02:24:22.097Z,50.877190
2023-05-10T02:25:22.094Z,50.877239
2023-05-10T02:26:22.115Z,50.877239
2023-05-10T02:27:22.061Z,50.877224
2023-05-10T02:28:22.064Z,50.877216
2023-05-10T02:29:22.073Z,50.877216
2023-05-10T02:30:22.072Z,50.877193
2023-05-10T02:31:22.106Z,50.877190
2023-05-10T02:32:22.029Z,50.877190
2023-05-10T02:33:22.003Z,50.877197
2023-05-10T02:34:22.015Z,50.877186
2023-05-10T02:35:22.018Z,50.877205
2023-05-10T02:36:21.994Z,50.877205
2023-05-10T02:37:21.973Z,50.877190
2023-05-10T02:38:21.993Z,50.877174
2023-05-10T02:39:21.933Z,50.877197
2023-05-10T02:40:21.959Z,50.877205
2023-05-10T02:41:21.967Z,50.877228
2023-05-10T02:42:22.921Z,50.877205
2023-05-10T02:43:21.975Z,50.877125
2023-05-10T02:44:21.886Z,50.877151
2023-05-10T02:45:21.877Z,50.877201
2023-05-10T02:46:21.917Z,50.877186
2023-05-10T02:47:21.857Z,50.877186
2023-05-10T02:48:21.870Z,50.877182
2023-05-10T02:49:21.855Z,50.877193
2023-05-10T02:50:21.840Z,50.877224
2023-05-10T02:51:21.824Z,50.877224
2023-05-10T02:52:21.833Z,50.877220
2023-05-10T02:53:21.837Z,50.877209
2023-05-10T02:54:21.800Z,50.877201
2023-05-10T02:55:21.804Z,50.877201
2023-05-10T02:56:21.796Z,50.877213
2023-05-10T02:57:21.774Z,50.877186
2023-05-10T02:58:22.796Z,50.877186
2023-05-10T02:59:21.750Z,50.877197
2023-05-10T03:00:21.737Z,50.877201
2023-05-10T03:01:21.756Z,50.877190
2023-05-10T03:02:21.719Z,50.877209
2023-05-10T03:03:21.713Z,50.877205
2023-05-10T03:04:21.755Z,50.877213
2023-05-10T03:05:21.679Z,50.877216
2023-05-10T03:06:21.667Z,50.877193
2023-05-10T03:07:21.721Z,50.877190
2023-05-10T03:08:21.655Z,50.877197
2023-05-10T03:09:21.659Z,50.877197
2023-05-10T03:10:21.659Z,50.877197
2023-05-10T03:11:21.655Z,50.877190
2023-05-10T03:12:21.626Z,50.877201
2023-05-10T03:13:21.678Z,50.877190
2023-05-10T03:14:21.616Z,50.877186
2023-05-10T03:15:21.616Z,50.877193
2023-05-10T03:16:21.627Z,50.877205
2023-05-10T03:17:21.609Z,50.877182
2023-05-10T03:18:21.561Z,50.877174
2023-05-10T03:19:21.562Z,50.877182
2023-05-10T03:20:21.576Z,50.877167
2023-05-10T03:21:21.527Z,50.877209
2023-05-10T03:22:21.512Z,50.877201
2023-05-10T03:23:21.507Z,50.877171
2023-05-10T03:24:21.536Z,50.877190
2023-05-10T03:25:21.498Z,50.877201
2023-05-10T03:26:21.487Z,50.877213
2023-05-10T03:27:22.460Z,50.877178
2023-05-10T03:28:21.463Z,50.877178
2023-05-10T03:29:21.448Z,50.877178
2023-05-10T03:30:21.466Z,50.877186
2023-05-10T03:31:21.460Z,50.877174
2023-05-10T03:32:21.440Z,50.877182
2023-05-10T03:33:21.427Z,50.877171
2023-05-10T03:34:21.385Z,50.877174
2023-05-10T03:35:21.403Z,50.877182
2023-05-10T03:36:21.368Z,50.877178
2023-05-10T03:37:21.378Z,50.877190
2023-05-10T03:38:21.359Z,50.877197
2023-05-10T03:39:21.364Z,50.877205
2023-05-10T03:40:21.347Z,50.877163
2023-05-10T03:41:21.344Z,50.877171
2023-05-10T03:42:21.322Z,50.877182
2023-05-10T03:43:21.326Z,50.877186
2023-05-10T03:44:21.293Z,50.877201
2023-05-10T03:45:21.282Z,50.877171
2023-05-10T03:46:21.311Z,50.877171
2023-05-10T03:47:21.295Z,50.877159
2023-05-10T03:48:21.262Z,50.877171
2023-05-10T03:49:21.242Z,50.877182
2023-05-10T03:50:21.257Z,50.877174
2023-05-10T03:51:22.221Z,50.877155
2023-05-10T03:52:21.245Z,50.877174
2023-05-10T03:53:21.204Z,50.877167
2023-05-10T03:54:21.245Z,50.877182
2023-05-10T03:55:21.204Z,50.877186
2023-05-10T03:56:21.189Z,50.877144
2023-05-10T03:57:21.166Z,50.877171
2023-05-10T03:58:21.187Z,50.877159
2023-05-10T03:59:21.181Z,50.877171
2023-05-10T04:00:21.137Z,50.877197
2023-05-10T04:01:21.128Z,50.877178
2023-05-10T04:02:21.181Z,50.877193
2023-05-10T04:03:21.237Z,50.877163
2023-05-10T04:04:21.124Z,50.877190
2023-05-10T04:05:21.207Z,50.877186
2023-05-10T04:06:21.110Z,50.877174
2023-05-10T04:07:21.112Z,50.877213
2023-05-10T04:08:21.065Z,50.877205
2023-05-10T04:09:21.092Z,50.877209
2023-05-10T04:10:21.051Z,50.877144
2023-05-10T04:11:21.044Z,50.877159
2023-05-10T04:12:21.023Z,50.877201
2023-05-10T04:13:21.153Z,50.877182
2023-05-10T04:14:21.048Z,50.877182
2023-05-10T04:15:20.996Z,50.877201
2023-05-10T04:16:21.100Z,50.877155
2023-05-10T04:17:21.024Z,50.877193
2023-05-10T04:18:20.996Z,50.877174
2023-05-10T04:19:21.038Z,50.877174
2023-05-10T04:20:20.960Z,50.877174
2023-05-10T04:21:20.946Z,50.877190
2023-05-10T04:22:20.925Z,50.877201
2023-05-10T04:23:20.914Z,50.877209
2023-05-10T04:24:20.914Z,50.877186
2023-05-10T04:25:20.922Z,50.877190
2023-05-10T04:26:20.889Z,50.877140
2023-05-10T04:27:20.913Z,50.877213
2023-05-10T04:28:20.872Z,50.877239
2023-05-10T04:29:20.882Z,50.877186
2023-05-10T04:30:20.852Z,50.877140
2023-05-10T04:31:20.874Z,50.877129
2023-05-10T04:32:20.829Z,50.877155
2023-05-10T04:36:40.424Z,50.877117
2023-05-10T04:37:40.473Z,50.877216
2023-05-10T04:38:40.421Z,50.877239
2023-05-10T04:39:42.338Z,50.877342
2023-05-10T04:40:41.394Z,50.877388
2023-05-10T04:41:40.421Z,50.877384
2023-05-10T04:42:40.390Z,50.877460
2023-05-10T04:43:40.386Z,50.877346
2023-05-10T04:44:40.355Z,50.877392
2023-05-10T04:45:40.338Z,50.877342
2023-05-10T04:46:40.476Z,50.877331
2023-05-10T04:47:40.435Z,50.877396
2023-05-10T04:48:40.336Z,50.877419
2023-05-10T04:49:40.347Z,50.877487
2023-05-10T04:50:40.303Z,50.877472
2023-05-10T04:51:40.284Z,50.877411
2023-05-10T04:52:40.300Z,50.877346
2023-05-10T04:53:40.978Z,50.877285
2023-05-10T04:54:40.253Z,50.877254
2023-05-10T04:55:40.277Z,50.877251
2023-05-10T04:56:40.244Z,50.877064
2023-05-10T04:57:40.238Z,50.877243
2023-05-10T04:58:40.212Z,50.877270
2023-05-10T04:59:40.231Z,50.877239
2023-05-10T05:00:40.216Z,50.877239
2023-05-10T05:01:40.274Z,50.877224
2023-05-10T05:02:40.193Z,50.877213
2023-05-10T05:03:40.285Z,50.877148
2023-05-10T05:04:40.151Z,50.877205
2023-05-10T05:05:40.158Z,50.877266
2023-05-10T05:06:40.156Z,50.877182
2023-05-10T05:07:40.125Z,50.877060
2023-05-10T05:08:40.120Z,50.877148
2023-05-10T05:09:40.124Z,50.877193
2023-05-10T05:10:40.112Z,50.877171
2023-05-10T05:11:40.085Z,50.877193
2023-05-10T05:12:40.076Z,50.877235
2023-05-10T05:13:40.103Z,50.877220
2023-05-10T05:14:40.063Z,50.877270
2023-05-10T05:15:40.058Z,50.877213
2023-05-10T05:16:40.098Z,50.877247
2023-05-10T05:17:40.073Z,50.877216
2023-05-10T05:18:40.027Z,50.877178
2023-05-10T05:19:41.035Z,50.877155
2023-05-10T05:20:40.005Z,50.877304
2023-05-10T05:21:40.014Z,50.877304
2023-05-10T05:22:39.989Z,50.877132
2023-05-10T05:23:40.004Z,50.877136
2023-05-10T05:24:39.953Z,50.877178
2023-05-10T05:25:39.959Z,50.877277
2023-05-10T05:26:39.958Z,50.877110
2023-05-10T05:27:40.007Z,50.876949
2023-05-10T05:28:40.034Z,50.876949
2023-05-10T05:29:39.965Z,50.876949
2023-05-10T05:30:39.896Z,50.876949
2023-05-10T05:31:39.919Z,50.876949
2023-05-10T05:32:39.899Z,50.876949
2023-05-10T05:33:39.854Z,50.876949
2023-05-10T05:34:39.871Z,50.876949
2023-05-10T05:35:39.849Z,50.876949
2023-05-10T05:36:39.842Z,50.876949
2023-05-10T05:37:39.841Z,50.876949
2023-05-10T05:38:39.806Z,50.876949
2023-05-10T05:39:39.819Z,50.877369
2023-05-10T05:40:39.802Z,50.877262
2023-05-10T05:41:39.776Z,50.877213
2023-05-10T05:42:39.849Z,50.877209
2023-05-10T05:43:39.768Z,50.877190
2023-05-10T05:44:39.753Z,50.877193
2023-05-10T05:45:39.767Z,50.877182
2023-05-10T05:46:39.766Z,50.877186
2023-05-10T05:47:39.848Z,50.877159
2023-05-10T05:48:39.730Z,50.877159
2023-05-10T05:49:39.715Z,50.877167
2023-05-10T05:50:39.695Z,50.877174
2023-05-10T05:51:39.691Z,50.877159
2023-05-10T05:52:39.671Z,50.877163
2023-05-10T05:53:39.722Z,50.877151
2023-05-10T05:54:39.658Z,50.877148
2023-05-10T05:55:39.640Z,50.877144
2023-05-10T05:56:39.644Z,50.877159
2023-05-10T05:57:39.623Z,50.877163
2023-05-10T05:58:39.605Z,50.877140
2023-05-10T05:59:39.606Z,50.877163
2023-05-10T06:00:39.617Z,50.877171
2023-05-10T06:01:39.591Z,50.877151
2023-05-10T06:02:39.633Z,50.877159
2023-05-10T06:03:39.719Z,50.877178
2023-05-10T06:04:41.526Z,50.877174
2023-05-10T06:05:39.561Z,50.877171
2023-05-10T06:06:39.615Z,50.877178
2023-05-10T06:07:39.513Z,50.877178
2023-05-10T06:08:39.520Z,50.877167
2023-05-10T06:09:39.504Z,50.877186
2023-05-10T06:10:39.520Z,50.877178
2023-05-10T06:11:39.501Z,50.877178
2023-05-10T06:12:39.474Z,50.877159
2023-05-10T06:13:39.446Z,50.877159
2023-05-10T06:14:39.471Z,50.877171
2023-05-10T06:15:39.430Z,50.877190
2023-05-10T06:16:39.503Z,50.877171
2023-05-10T06:17:39.436Z,50.877182
2023-05-10T06:18:39.408Z,50.877182
2023-05-10T06:19:39.400Z,50.877182
2023-05-10T06:20:39.414Z,50.877178
2023-05-10T06:21:39.437Z,50.877163
2023-05-10T06:22:39.408Z,50.877178
2023-05-10T06:23:39.351Z,50.877163
2023-05-10T06:24:39.391Z,50.877110
2023-05-10T06:25:39.337Z,50.877102
2023-05-10T06:26:39.355Z,50.877151
2023-05-10T06:27:39.313Z,50.877144
2023-05-10T06:28:39.338Z,50.877159
2023-05-10T06:29:39.291Z,50.877151
2023-05-10T06:30:39.339Z,50.877167
2023-05-10T06:31:39.368Z,50.877155
2023-05-10T06:32:39.292Z,50.877167
2023-05-10T06:33:39.270Z,50.877159
2023-05-10T06:34:39.261Z,50.877167
2023-05-10T06:35:39.256Z,50.877163
2023-05-10T06:36:39.245Z,50.877167
2023-05-10T06:37:39.216Z,50.877186
2023-05-10T06:38:39.241Z,50.877182
2023-05-10T06:39:39.209Z,50.877174
2023-05-10T06:40:39.170Z,50.877155
2023-05-10T06:41:39.194Z,50.877148
2023-05-10T06:42:39.191Z,50.877193
2023-05-10T06:43:39.159Z,50.877167
2023-05-10T06:44:39.151Z,50.877148
2023-05-10T06:45:39.129Z,50.877182
2023-05-10T06:46:39.156Z,50.877140
2023-05-10T06:47:39.533Z,50.877094
2023-05-10T06:48:39.115Z,50.877136
2023-05-10T06:49:39.115Z,50.877148
2023-05-10T06:50:39.112Z,50.877178
2023-05-10T06:51:39.103Z,50.877216
2023-05-10T06:52:39.076Z,50.877155
2023-05-10T06:53:39.066Z,50.877190
2023-05-10T06:54:39.057Z,50.877205
2023-05-10T06:55:39.081Z,50.877125
2023-05-10T06:56:39.041Z,50.877174
2023-05-10T06:57:39.032Z,50.877087
2023-05-10T06:58:39.085Z,50.877148
2023-05-10T06:59:39.065Z,50.877167
2023-05-10T07:00:39.035Z,50.877243
2023-05-10T07:01:39.045Z,50.877167
2023-05-10T07:02:39.050Z,50.877159
2023-05-10T07:03:38.956Z,50.877155
2023-05-10T07:04:39.044Z,50.877159
2023-05-10T07:05:39.030Z,50.877197
2023-05-10T07:06:38.931Z,50.877190
2023-05-10T07:07:38.928Z,50.877213
2023-05-10T07:08:38.932Z,50.877289
2023-05-10T07:09:38.937Z,50.877205
2023-05-10T07:10:38.915Z,50.877190
2023-05-10T07:11:38.871Z,50.877159
2023-05-10T07:12:38.944Z,50.877121
2023-05-10T07:13:38.944Z,50.877205
2023-05-10T07:14:38.841Z,50.877159
2023-05-10T07:15:38.844Z,50.877079
2023-05-10T07:16:39.013Z,50.877132
2023-05-10T07:17:38.913Z,50.877182
2023-05-10T07:18:38.852Z,50.877213
2023-05-10T07:19:38.805Z,50.877224
2023-05-10T07:20:38.815Z,50.877213
2023-05-10T07:21:38.768Z,50.877213
2023-05-10T07:22:38.777Z,50.877174
2023-05-10T07:23:38.774Z,50.877132
2023-05-10T07:24:38.764Z,50.877163
2023-05-10T07:25:38.738Z,50.877182
2023-05-10T07:26:38.772Z,50.877197
2023-05-10T07:27:38.723Z,50.877174
2023-05-10T07:28:38.739Z,50.877171
2023-05-10T07:29:38.693Z,50.877159
2023-05-10T07:30:38.729Z,50.877182
2023-05-10T07:31:39.691Z,50.877193
2023-05-10T07:32:38.759Z,50.877220
2023-05-10T07:33:38.710Z,50.877186
2023-05-10T07:34:38.660Z,50.877159
2023-05-10T07:35:38.653Z,50.877178
2023-05-10T07:36:38.624Z,50.877209
2023-05-10T07:37:38.611Z,50.877201
2023-05-10T07:38:40.802Z,50.877186
2023-05-10T07:39:38.598Z,50.877190
2023-05-10T07:40:38.608Z,50.877182
2023-05-10T07:41:38.583Z,50.877220
2023-05-10T07:42:38.556Z,50.877205
2023-05-10T07:43:38.552Z,50.877193
2023-05-10T07:44:38.539Z,50.877178
2023-05-10T07:45:38.559Z,50.877182
2023-05-10T07:46:38.589Z,50.877178
2023-05-10T07:47:38.540Z,50.877178
2023-05-10T07:48:38.615Z,50.877205
2023-05-10T07:49:38.501Z,50.877178
2023-05-10T07:50:38.470Z,50.877186
2023-05-10T07:51:38.483Z,50.877193
2023-05-10T07:52:38.466Z,50.877171
2023-05-10T07:53:38.461Z,50.877178
2023-05-10T07:54:38.460Z,50.877201
2023-05-10T07:55:38.446Z,50.877190
2023-05-10T07:56:38.449Z,50.877209
2023-05-10T07:57:38.404Z,50.877186
2023-05-10T07:58:38.395Z,50.877193
2023-05-10T07:59:38.406Z,50.877220
2023-05-10T08:00:38.372Z,50.877243
2023-05-10T08:01:38.398Z,50.877213
2023-05-10T08:02:38.493Z,50.877235
2023-05-10T08:03:38.417Z,50.877205
2023-05-10T08:04:38.467Z,50.877151
2023-05-10T08:05:38.336Z,50.877167
2023-05-10T08:06:38.320Z,50.877209
2023-05-10T08:07:38.328Z,50.877216
2023-05-10T08:08:38.432Z,50.877213
2023-05-10T08:09:38.291Z,50.877205
2023-05-10T08:10:38.278Z,50.877201
2023-05-10T08:11:38.312Z,50.877190
2023-05-10T08:12:38.331Z,50.877125
2023-05-10T08:13:38.264Z,50.877193
2023-05-10T08:14:38.258Z,50.877193
2023-05-10T08:15:38.235Z,50.877193
2023-05-10T08:16:38.214Z,50.877193
2023-05-10T08:17:38.291Z,50.877289
2023-05-10T08:18:38.220Z,50.877247
2023-05-10T08:19:38.207Z,50.877247
2023-05-10T08:20:38.171Z,50.877247
2023-05-10T08:21:38.185Z,50.877247
2023-05-10T08:22:38.157Z,50.877247
2023-05-10T08:23:38.133Z,50.877190
2023-05-10T08:24:38.144Z,50.877209
2023-05-10T08:25:38.138Z,50.877205
2023-05-10T08:26:38.129Z,50.877232
2023-05-10T08:27:38.090Z,50.877182
2023-05-10T08:28:38.098Z,50.877174
2023-05-10T08:29:48.825Z,50.877346
2023-05-10T08:30:40.075Z,50.877457
2023-05-10T08:31:38.171Z,50.877407
2023-05-10T08:32:38.103Z,50.877407
2023-05-10T08:33:39.076Z,50.877407
2023-05-10T08:34:38.045Z,50.877388
2023-05-10T08:35:38.025Z,50.877357
2023-05-10T08:36:38.038Z,50.877285
2023-05-10T08:37:38.033Z,50.877228
2023-05-10T08:38:38.024Z,50.877220
2023-05-10T08:39:37.982Z,50.877220
2023-05-10T08:40:38.132Z,50.877239
2023-05-10T08:41:37.980Z,50.877243
2023-05-10T08:42:37.952Z,50.877197
2023-05-10T08:43:37.989Z,50.877151
2023-05-10T08:44:38.048Z,50.877182
2023-05-10T08:45:37.950Z,50.877220
2023-05-10T08:46:37.953Z,50.877193
2023-05-10T08:47:37.918Z,50.877163
2023-05-10T08:48:37.915Z,50.877117
2023-05-10T08:49:37.917Z,50.877193
2023-05-10T08:50:37.876Z,50.877167
2023-05-10T08:51:37.917Z,50.877144
2023-05-10T08:52:37.880Z,50.877136
2023-05-10T08:53:37.868Z,50.877125
2023-05-10T08:54:37.891Z,50.877117
2023-05-10T08:55:37.830Z,50.877144
2023-05-10T08:56:38.025Z,50.877148
2023-05-10T08:57:37.815Z,50.877167
2023-05-10T08:58:37.864Z,50.877155
2023-05-10T08:59:37.801Z,50.877197
2023-05-10T09:00:37.812Z,50.877197
2023-05-10T09:01:37.781Z,50.877201
2023-05-10T09:02:37.802Z,50.877052
2023-05-10T09:03:37.785Z,50.877079
2023-05-10T09:04:37.841Z,50.877113
2023-05-10T09:05:37.729Z,50.877094
2023-05-10T09:06:37.872Z,50.877140
2023-05-10T09:07:37.724Z,50.877171
2023-05-10T09:08:37.715Z,50.877171
2023-05-10T09:09:37.734Z,50.877213
2023-05-10T09:10:37.697Z,50.877205
2023-05-10T09:11:37.715Z,50.877159
2023-05-10T09:12:37.662Z,50.877171
2023-05-10T09:13:37.644Z,50.877190
2023-05-10T09:14:38.662Z,50.877171
2023-05-10T09:15:37.654Z,50.877182
2023-05-10T09:16:37.756Z,50.877178
2023-05-10T09:17:37.699Z,50.877174
2023-05-10T09:18:38.762Z,50.877171
2023-05-10T09:19:37.642Z,50.877171
2023-05-10T09:20:37.620Z,50.877167
2023-05-10T09:21:37.570Z,50.877167
2023-05-10T09:22:37.593Z,50.877171
2023-05-10T09:23:37.575Z,50.877197
2023-05-10T09:24:37.541Z,50.877178
2023-05-10T09:25:37.554Z,50.877190
2023-05-10T09:26:37.526Z,50.877178
2023-05-10T09:27:37.519Z,50.877174
2023-05-10T09:28:37.524Z,50.877182
2023-05-10T09:29:37.548Z,50.877186
2023-05-10T09:30:37.550Z,50.877182
2023-05-10T09:31:37.514Z,50.877197
2023-05-10T09:32:37.498Z,50.877193
2023-05-10T09:33:37.453Z,50.877197
2023-05-10T09:34:37.508Z,50.877205
2023-05-10T09:35:37.431Z,50.877201
2023-05-10T09:36:37.463Z,50.877178
2023-05-10T09:37:37.410Z,50.877163
2023-05-10T09:38:37.410Z,50.877182
2023-05-10T09:39:37.385Z,50.877148
2023-05-10T09:40:37.388Z,50.877174
2023-05-10T09:41:37.379Z,50.877140
2023-05-10T09:42:37.379Z,50.877186
2023-05-10T09:43:37.414Z,50.877106
2023-05-10T09:44:37.340Z,50.877197
2023-05-10T09:45:38.882Z,50.877171
2023-05-10T09:46:37.444Z,50.877167
2023-05-10T09:47:37.377Z,50.877193
2023-05-10T09:48:37.303Z,50.877220
2023-05-10T09:49:37.291Z,50.877186
2023-05-10T09:50:37.295Z,50.877171
2023-05-10T09:51:37.287Z,50.877159
2023-05-10T09:52:37.314Z,50.877132
2023-05-10T09:53:37.304Z,50.877151
2023-05-10T09:54:37.265Z,50.877140
2023-05-10T09:55:37.257Z,50.877148
2023-05-10T09:56:37.317Z,50.877178
2023-05-10T09:57:37.224Z,50.877171
2023-05-10T09:58:37.222Z,50.877159
2023-05-10T09:59:37.258Z,50.877178
2023-05-10T10:00:37.190Z,50.877167
2023-05-10T10:01:37.188Z,50.877178
2023-05-10T10:02:37.211Z,50.877159
2023-05-10T10:03:37.152Z,50.877155
2023-05-10T10:04:37.185Z,50.877155
2023-05-10T10:05:37.151Z,50.877174
2023-05-10T10:06:37.223Z,50.877171
2023-05-10T10:07:37.125Z,50.877136
2023-05-10T10:08:37.159Z,50.877174
2023-05-10T10:09:37.131Z,50.877174
2023-05-10T10:10:37.150Z,50.877163
2023-05-10T10:11:37.084Z,50.877159
2023-05-10T10:12:37.112Z,50.877171
2023-05-10T10:13:37.066Z,50.877151
2023-05-10T10:14:37.082Z,50.877171
2023-05-10T10:15:37.105Z,50.877171
2023-05-10T10:16:39.958Z,50.877186
2023-05-10T10:17:37.044Z,50.877163
2023-05-10T10:18:37.057Z,50.877171
2023-05-10T10:19:37.497Z,50.877178
2023-05-10T10:20:37.008Z,50.877178
2023-05-10T10:21:36.994Z,50.877178
2023-05-10T10:22:36.976Z,50.877167
2023-05-10T10:23:36.980Z,50.877190
2023-05-10T10:24:37.039Z,50.877197
2023-05-10T10:25:36.962Z,50.877163
2023-05-10T10:26:36.956Z,50.877171
2023-05-10T10:27:36.939Z,50.877171
2023-05-10T10:28:36.947Z,50.877171
2023-05-10T10:29:36.922Z,50.877167
2023-05-10T10:30:36.896Z,50.877144
2023-05-10T10:31:36.948Z,50.877171
2023-05-10T10:32:36.895Z,50.877174
2023-05-10T10:34:08.805Z,50.877178
2023-05-10T10:34:36.899Z,50.877140
2023-05-10T10:35:36.852Z,50.877163
2023-05-10T10:36:36.852Z,50.877151
2023-05-10T10:37:36.824Z,50.877125
2023-05-10T10:38:37.849Z,50.877144
2023-05-10T10:39:36.818Z,50.877171
2023-05-10T10:40:36.822Z,50.877167
2023-05-10T10:41:36.799Z,50.877197
2023-05-10T10:42:36.818Z,50.877163
2023-05-10T10:43:36.768Z,50.877174
2023-05-10T10:44:36.752Z,50.877174
2023-05-10T10:45:36.777Z,50.877167
2023-05-10T10:46:36.818Z,50.877186
2023-05-10T10:47:36.777Z,50.877163
2023-05-10T10:48:36.722Z,50.877151
2023-05-10T10:49:36.709Z,50.877151
2023-05-10T10:50:36.728Z,50.877201
2023-05-10T10:51:36.698Z,50.877209
2023-05-10T10:52:36.687Z,50.877213
2023-05-10T10:53:36.747Z,50.877216
2023-05-10T10:54:36.667Z,50.877140
2023-05-10T10:55:36.658Z,50.877190
2023-05-10T10:56:37.150Z,50.877228
2023-05-10T10:57:36.694Z,50.877209
2023-05-10T10:58:36.630Z,50.877216
2023-05-10T10:59:36.648Z,50.877216
2023-05-10T11:00:36.671Z,50.877186
2023-05-10T11:01:36.784Z,50.877228
2023-05-10T11:02:36.618Z,50.877277
2023-05-10T11:03:36.610Z,50.877247
2023-05-10T11:04:36.653Z,50.877079
2023-05-10T11:05:36.569Z,50.877052
2023-05-10T11:06:36.749Z,50.877132
2023-05-10T11:07:36.533Z,50.877182
2023-05-10T11:08:38.233Z,50.877155
2023-05-10T11:09:36.530Z,50.877186
2023-05-10T11:10:36.547Z,50.877094
2023-05-10T11:11:36.560Z,50.877190
2023-05-10T11:12:36.554Z,50.877125
2023-05-10T11:13:36.495Z,50.877174
2023-05-10T11:14:36.476Z,50.877129
2023-05-10T11:15:36.468Z,50.877106
2023-05-10T11:16:36.494Z,50.877159
2023-05-10T11:17:36.540Z,50.876987
2023-05-10T11:18:36.429Z,50.876881
2023-05-10T11:19:36.459Z,50.877186
2023-05-10T11:20:36.455Z,50.876961
2023-05-10T11:21:36.401Z,50.876801
2023-05-10T11:22:36.407Z,50.877171
2023-05-10T11:23:36.379Z,50.877171
2023-05-10T11:24:36.398Z,50.877174
2023-05-10T11:25:36.370Z,50.877155
2023-05-10T11:26:36.346Z,50.877163
2023-05-10T11:27:36.364Z,50.877125
2023-05-10T11:28:36.324Z,50.877075
2023-05-10T11:29:36.304Z,50.877090
2023-05-10T11:30:36.343Z,50.877132
2023-05-10T11:31:36.395Z,50.877106
2023-05-10T11:32:36.330Z,50.877121
2023-05-10T11:33:36.278Z,50.877121
2023-05-10T11:34:36.259Z,50.877129